createdAt,value
2019-05-02T00:01:58.230Z,10.52
2019-05-02T00:04:29.912Z,10.47
2019-05-02T00:07:05.624Z,10.18
2019-05-02T00:09:47.784Z,10.37
2019-05-02T00:12:15.816Z,10.14
2019-05-02T00:14:47.153Z,10.12
2019-05-02T00:17:20.252Z,10.01
2019-05-02T00:19:52.642Z,10.05
2019-05-02T00:22:23.695Z,10.14
2019-05-02T00:24:54.752Z,10.03
2019-05-02T00:27:25.919Z,10.19
2019-05-02T00:29:58.667Z,10.27
2019-05-02T00:32:29.714Z,10.32
2019-05-02T00:35:00.686Z,10.10
2019-05-02T00:37:31.657Z,10.08
2019-05-02T00:40:02.840Z,10.08
2019-05-02T00:42:33.927Z,9.97
2019-05-02T00:45:06.180Z,9.74
2019-05-02T00:47:47.906Z,9.89
2019-05-02T00:50:19.240Z,9.84
2019-05-02T00:52:50.460Z,9.82
2019-05-02T00:55:21.617Z,9.92
2019-05-02T00:57:55.735Z,9.85
2019-05-02T01:00:25.407Z,10.00
2019-05-02T01:03:00.724Z,9.95
2019-05-02T01:05:33.729Z,9.82
2019-05-02T01:08:05.318Z,9.96
2019-05-02T01:10:36.387Z,9.89
2019-05-02T01:13:07.523Z,9.84
2019-05-02T01:15:39.035Z,9.95
2019-05-02T01:18:11.163Z,9.71
2019-05-02T01:20:42.150Z,9.76
2019-05-02T01:23:13.217Z,9.87
2019-05-02T01:25:47.363Z,9.82
2019-05-02T01:28:35.842Z,9.68
2019-05-02T01:31:18.448Z,9.78
2019-05-02T01:34:00.836Z,9.72
2019-05-02T01:36:41.010Z,9.45
2019-05-02T01:39:11.553Z,9.52
2019-05-02T01:41:42.519Z,9.51
2019-05-02T01:44:13.510Z,9.59
2019-05-02T01:46:44.465Z,9.59
2019-05-02T01:49:16.928Z,9.83
2019-05-02T01:51:49.368Z,9.84
2019-05-02T01:54:20.354Z,9.84
2019-05-02T01:56:51.309Z,9.77
2019-05-02T01:59:23.327Z,9.71
2019-05-02T02:01:57.926Z,9.44
2019-05-02T02:04:27.049Z,9.67
2019-05-02T02:06:58.099Z,9.53
2019-05-02T02:09:29.217Z,9.64
2019-05-02T02:12:05.027Z,9.67
2019-05-02T02:14:33.378Z,9.65
2019-05-02T02:17:04.413Z,9.28
2019-05-02T02:19:53.644Z,9.56
2019-05-02T02:22:38.606Z,9.63
2019-05-02T02:25:25.201Z,9.47
2019-05-02T02:27:59.601Z,9.43
2019-05-02T02:30:28.994Z,9.54
2019-05-02T02:33:07.710Z,9.53
2019-05-02T02:35:34.052Z,9.41
2019-05-02T02:38:05.295Z,9.33
2019-05-02T02:40:36.261Z,9.48
2019-05-02T02:43:22.458Z,9.57
2019-05-02T02:45:51.921Z,9.61
2019-05-02T02:48:22.495Z,9.29
2019-05-02T02:50:53.527Z,9.41
2019-05-02T02:53:33.710Z,9.36
2019-05-02T02:56:07.324Z,9.35
2019-05-02T02:58:45.223Z,9.24
2019-05-02T03:01:11.339Z,9.36
2019-05-02T03:03:42.605Z,9.36
2019-05-02T03:06:13.578Z,9.35
2019-05-02T03:08:48.659Z,9.40
2019-05-02T03:11:23.523Z,9.21
2019-05-02T03:14:09.579Z,9.15
2019-05-02T03:16:47.472Z,9.24
2019-05-02T03:19:14.727Z,9.22
2019-05-02T03:22:04.561Z,9.18
2019-05-02T03:24:36.419Z,9.27
2019-05-02T03:27:08.494Z,9.14
2019-05-02T03:29:43.859Z,9.08
2019-05-02T03:32:16.951Z,9.11
2019-05-02T03:34:48.438Z,9.17
2019-05-02T03:37:17.968Z,9.20
2019-05-02T03:39:56.549Z,9.23
2019-05-02T03:42:21.831Z,9.03
2019-05-02T03:44:56.345Z,9.15
2019-05-02T03:47:26.721Z,9.11
2019-05-02T03:49:58.346Z,9.10
2019-05-02T03:52:29.533Z,9.11
2019-05-02T03:55:00.637Z,9.05
2019-05-02T03:57:35.707Z,9.07
2019-05-02T04:00:06.114Z,9.25
2019-05-02T04:02:38.121Z,9.34
2019-05-02T04:05:09.532Z,9.53
2019-05-02T04:07:42.324Z,9.38
2019-05-02T04:10:20.227Z,9.44
2019-05-02T04:12:53.059Z,9.59
2019-05-02T04:15:28.828Z,9.53
2019-05-02T04:17:57.304Z,9.52
2019-05-02T04:20:28.658Z,9.57
2019-05-02T04:23:01.632Z,9.28
2019-05-02T04:25:35.438Z,9.50
2019-05-02T04:28:12.078Z,9.38
2019-05-02T04:30:45.089Z,9.43
2019-05-02T04:33:13.057Z,9.47
2019-05-02T04:35:44.308Z,9.46
2019-05-02T04:38:21.451Z,9.52
2019-05-02T04:40:49.508Z,9.67
2019-05-02T04:43:20.921Z,9.58
2019-05-02T04:45:56.404Z,9.73
2019-05-02T04:48:24.630Z,9.76
2019-05-02T04:51:01.980Z,9.57
2019-05-02T04:55:08.366Z,9.64
2019-05-02T04:57:36.607Z,9.68
2019-05-02T05:00:08.598Z,9.41
2019-05-02T05:02:39.343Z,9.69
2019-05-02T05:05:08.361Z,9.65
2019-05-02T05:07:45.822Z,9.80
2019-05-02T05:10:13.149Z,10.03
2019-05-02T05:12:44.123Z,10.00
2019-05-02T05:15:33.844Z,10.14
2019-05-02T05:17:49.974Z,10.18
2019-05-02T05:20:20.647Z,10.27
2019-05-02T05:22:51.697Z,10.29
2019-05-02T05:25:28.620Z,10.46
2019-05-02T05:28:05.658Z,10.54
2019-05-02T05:30:32.338Z,10.29
2019-05-02T05:33:03.382Z,10.38
2019-05-02T05:35:34.398Z,10.37
2019-05-02T05:38:07.622Z,10.57
2019-05-02T05:40:38.228Z,10.54
2019-05-02T05:43:14.424Z,10.63
2019-05-02T05:45:53.591Z,10.73
2019-05-02T05:48:14.702Z,10.94
2019-05-02T05:50:47.651Z,11.16
2019-05-02T05:53:21.353Z,11.05
2019-05-02T05:55:53.672Z,11.33
2019-05-02T05:58:23.885Z,11.11
2019-05-02T06:00:56.518Z,11.11
2019-05-02T06:03:27.847Z,11.20
2019-05-02T06:05:59.026Z,11.28
2019-05-02T06:08:30.079Z,11.21
2019-05-02T06:11:01.130Z,11.45
2019-05-02T06:13:32.099Z,11.48
2019-05-02T06:16:03.611Z,11.80
2019-05-02T06:18:36.429Z,11.61
2019-05-02T06:21:08.795Z,12.02
2019-05-02T06:23:41.521Z,11.99
2019-05-02T06:26:13.545Z,12.23
2019-05-02T06:28:45.320Z,11.84
2019-05-02T06:31:17.241Z,11.92
2019-05-02T06:33:49.251Z,12.23
2019-05-02T06:36:20.423Z,12.58
2019-05-02T06:38:52.329Z,13.19
2019-05-02T06:41:24.278Z,13.49
2019-05-02T06:43:56.318Z,14.45
2019-05-02T06:46:29.538Z,14.46
2019-05-02T06:49:00.091Z,15.13
2019-05-02T06:51:31.080Z,15.14
2019-05-02T06:54:02.052Z,15.13
2019-05-02T06:56:34.100Z,15.28
2019-05-02T06:59:05.275Z,15.12
2019-05-02T07:01:37.599Z,15.25
2019-05-02T07:04:08.751Z,15.92
2019-05-02T07:06:56.303Z,16.48
2019-05-02T07:09:12.803Z,16.98
2019-05-02T07:11:56.646Z,17.49
2019-05-02T07:14:18.594Z,17.88
2019-05-02T07:17:14.759Z,19.45
2019-05-02T07:19:48.313Z,20.15
2019-05-02T07:22:19.286Z,20.40
2019-05-02T07:24:50.418Z,22.41
2019-05-02T07:27:21.465Z,22.08
2019-05-02T07:29:57.685Z,22.93
2019-05-02T07:32:26.781Z,23.55
2019-05-02T07:34:57.752Z,24.10
2019-05-02T07:37:28.825Z,23.92
2019-05-02T07:39:59.788Z,23.22
2019-05-02T07:42:30.764Z,23.43
2019-05-02T07:45:04.301Z,24.22
2019-05-02T07:47:40.185Z,23.24
2019-05-02T07:50:10.276Z,24.41
2019-05-02T07:52:41.344Z,24.36
2019-05-02T07:55:13.353Z,24.89
2019-05-02T07:57:44.340Z,25.00
2019-05-02T08:00:16.839Z,24.31
2019-05-02T08:02:47.910Z,24.57
2019-05-02T08:05:21.643Z,21.61
2019-05-02T08:07:53.278Z,21.54
2019-05-02T08:10:24.998Z,21.14
2019-05-02T08:12:56.047Z,22.05
2019-05-02T08:15:28.066Z,22.28
2019-05-02T08:17:59.061Z,21.27
2019-05-02T08:20:30.053Z,21.16
2019-05-02T08:23:01.072Z,20.58
2019-05-02T08:25:32.139Z,20.77
2019-05-02T08:28:17.918Z,20.36
2019-05-02T08:30:53.049Z,20.48
2019-05-02T08:33:24.038Z,20.66
2019-05-02T08:35:55.192Z,20.30
2019-05-02T08:38:26.195Z,20.53
2019-05-02T08:40:57.195Z,20.49
2019-05-02T08:43:28.345Z,20.37
2019-05-02T08:45:59.358Z,20.76
2019-05-02T08:48:30.347Z,20.77
2019-05-02T08:51:01.422Z,20.37
2019-05-02T08:53:32.618Z,20.48
2019-05-02T08:56:03.687Z,20.58
2019-05-02T08:58:34.664Z,20.33
2019-05-02T09:01:09.252Z,20.48
2019-05-02T09:03:54.716Z,20.21
2019-05-02T09:06:11.334Z,20.46
2019-05-02T09:08:46.139Z,20.68
2019-05-02T09:11:15.865Z,20.67
2019-05-02T09:13:46.943Z,20.61
2019-05-02T09:16:23.644Z,20.44
2019-05-02T09:18:53.931Z,20.18
2019-05-02T09:21:26.823Z,20.77
2019-05-02T09:23:56.146Z,20.70
2019-05-02T09:26:37.795Z,20.98
2019-05-02T09:29:01.708Z,20.84
2019-05-02T09:31:36.675Z,20.20
2019-05-02T09:34:05.575Z,20.66
2019-05-02T09:36:38.185Z,20.53
2019-05-02T09:39:11.760Z,20.01
2019-05-02T09:41:42.150Z,20.00
2019-05-02T09:44:18.595Z,20.03
2019-05-02T09:46:47.387Z,20.37
2019-05-02T09:49:21.900Z,20.40
2019-05-02T09:51:59.147Z,20.34
2019-05-02T09:54:25.158Z,20.43
2019-05-02T09:56:56.189Z,20.70
2019-05-02T09:59:33.549Z,20.94
2019-05-02T10:02:08.024Z,20.63
2019-05-02T10:04:42.120Z,20.49
2019-05-02T10:07:15.195Z,20.88
2019-05-02T10:09:45.493Z,20.98
2019-05-02T10:12:16.500Z,21.27
2019-05-02T10:14:47.490Z,20.78
2019-05-02T10:17:18.648Z,20.49
2019-05-02T10:19:54.953Z,20.22
2019-05-02T10:22:23.809Z,20.56
2019-05-02T10:24:55.280Z,20.83
2019-05-02T10:27:26.447Z,21.22
2019-05-02T10:30:08.113Z,21.39
2019-05-02T10:32:32.437Z,20.68
2019-05-02T10:35:03.587Z,20.33
2019-05-02T10:37:38.243Z,20.54
2019-05-02T10:40:12.718Z,20.93
2019-05-02T10:42:41.955Z,21.10
2019-05-02T10:45:16.704Z,21.37
2019-05-02T10:47:47.476Z,21.15
2019-05-02T10:50:23.215Z,21.21
2019-05-02T10:52:54.296Z,21.22
2019-05-02T10:55:25.528Z,21.52
2019-05-02T10:57:56.484Z,21.09
2019-05-02T11:00:33.977Z,20.82
2019-05-02T11:03:12.122Z,20.79
2019-05-02T11:05:45.708Z,20.76
2019-05-02T11:08:16.732Z,20.74
2019-05-02T11:10:47.785Z,20.74
2019-05-02T11:13:28.972Z,20.59
2019-05-02T11:16:18.955Z,20.49
2019-05-02T11:19:13.113Z,20.63
2019-05-02T11:21:55.520Z,20.89
2019-05-02T11:24:17.094Z,21.15
2019-05-02T11:26:48.180Z,21.08
2019-05-02T11:29:19.178Z,20.63
2019-05-02T11:31:52.018Z,20.57
2019-05-02T11:34:22.924Z,20.63
2019-05-02T11:36:53.914Z,20.63
2019-05-02T11:39:33.285Z,21.07
2019-05-02T11:41:57.739Z,20.73
2019-05-02T11:44:28.861Z,20.40
2019-05-02T11:47:01.818Z,20.17
2019-05-02T11:49:32.602Z,20.25
2019-05-02T11:52:04.661Z,20.32
2019-05-02T11:54:39.264Z,20.85
2019-05-02T11:57:08.443Z,20.76
2019-05-02T11:59:39.450Z,20.48
2019-05-02T12:02:28.440Z,20.30
2019-05-02T12:04:59.482Z,20.57
2019-05-02T12:07:32.343Z,20.50
2019-05-02T12:10:04.723Z,20.40
2019-05-02T12:12:36.359Z,20.43
2019-05-02T12:15:09.525Z,20.36
2019-05-02T12:17:41.975Z,20.32
2019-05-02T12:20:13.269Z,20.50
2019-05-02T12:22:44.395Z,20.89
2019-05-02T12:25:15.495Z,21.03
2019-05-02T12:27:47.738Z,21.06
2019-05-02T12:30:19.097Z,20.60
2019-05-02T12:32:53.128Z,20.75
2019-05-02T12:35:24.419Z,20.21
2019-05-02T12:37:55.435Z,20.70
2019-05-02T12:40:26.765Z,20.41
2019-05-02T12:42:57.739Z,20.38
2019-05-02T12:45:28.919Z,20.81
2019-05-02T12:48:02.402Z,20.60
2019-05-02T12:50:33.118Z,20.42
2019-05-02T12:53:04.189Z,20.24
2019-05-02T12:58:21.857Z,20.40
2019-05-02T13:00:53.272Z,20.42
2019-05-02T13:03:44.397Z,20.29
2019-05-02T13:06:15.561Z,20.77
2019-05-02T13:08:49.084Z,21.06
2019-05-02T13:11:49.198Z,21.12
2019-05-02T13:14:24.093Z,20.58
2019-05-02T13:17:01.194Z,20.73
2019-05-02T13:19:38.001Z,20.72
2019-05-02T13:22:29.158Z,20.89
2019-05-02T13:25:10.497Z,20.59
2019-05-02T13:27:47.516Z,21.07
2019-05-02T13:30:46.786Z,21.17
2019-05-02T13:33:34.375Z,21.37
2019-05-02T13:36:02.504Z,20.76
2019-05-02T13:38:33.777Z,20.62
2019-05-02T13:41:05.123Z,20.39
2019-05-02T13:43:43.589Z,20.35
2019-05-02T13:46:19.084Z,20.60
2019-05-02T13:48:50.085Z,20.65
2019-05-02T13:51:22.341Z,20.58
2019-05-02T13:54:02.243Z,20.40
2019-05-02T13:56:52.355Z,20.49
2019-05-02T13:59:23.184Z,20.25
2019-05-02T14:01:55.184Z,20.29
2019-05-02T14:04:26.314Z,20.03
2019-05-02T14:06:57.431Z,19.81
2019-05-02T14:09:50.910Z,19.60
2019-05-02T14:12:53.272Z,19.60
2019-05-02T14:15:27.126Z,19.78
2019-05-02T14:17:58.305Z,20.01
2019-05-02T14:20:29.429Z,20.40
2019-05-02T14:23:02.195Z,20.35
2019-05-02T14:25:33.179Z,20.21
2019-05-02T14:28:04.175Z,20.45
2019-05-02T14:30:39.506Z,20.53
2019-05-02T14:33:13.965Z,20.52
2019-05-02T14:35:45.147Z,20.41
2019-05-02T14:38:16.963Z,20.61
2019-05-02T14:41:19.306Z,20.54
2019-05-02T14:43:54.243Z,20.72
2019-05-02T14:46:37.415Z,20.86
2019-05-02T14:48:59.727Z,20.69
2019-05-02T14:51:33.092Z,20.37
2019-05-02T14:54:08.113Z,20.15
2019-05-02T14:57:02.098Z,20.25
2019-05-02T14:59:33.227Z,20.45
2019-05-02T15:02:07.871Z,20.13
2019-05-02T15:04:44.609Z,20.38
2019-05-02T15:07:12.953Z,20.55
2019-05-02T15:09:44.375Z,20.69
2019-05-02T15:12:18.844Z,20.40
2019-05-02T15:14:49.270Z,20.05
2019-05-02T15:17:22.667Z,20.18
2019-05-02T15:19:53.632Z,20.06
2019-05-02T15:22:27.609Z,19.90
2019-05-02T15:24:57.473Z,20.05
2019-05-02T15:27:39.346Z,19.99
2019-05-02T15:30:06.896Z,20.08
2019-05-02T15:32:44.899Z,20.18
2019-05-02T15:35:35.895Z,20.07
2019-05-02T15:38:06.973Z,19.59
2019-05-02T15:40:47.170Z,19.55
2019-05-02T15:43:12.608Z,19.46
2019-05-02T15:45:45.436Z,19.30
2019-05-02T15:48:22.499Z,19.52
2019-05-02T15:50:52.970Z,19.68
2019-05-02T15:53:32.552Z,19.45
2019-05-02T15:56:03.883Z,19.53
2019-05-02T15:58:35.013Z,19.60
2019-05-02T16:01:17.193Z,19.56
2019-05-02T16:03:50.050Z,19.48
2019-05-02T16:06:25.850Z,19.40
2019-05-02T16:08:53.933Z,19.46
2019-05-02T16:11:25.234Z,19.09
2019-05-02T16:13:56.384Z,19.12
2019-05-02T16:16:27.503Z,18.89
2019-05-02T16:18:58.657Z,18.80
2019-05-02T16:22:06.273Z,18.90
2019-05-02T16:24:33.848Z,18.97
2019-05-02T16:27:04.972Z,19.13
2019-05-02T16:29:36.052Z,19.19
2019-05-02T16:32:30.841Z,19.43
2019-05-02T16:35:12.162Z,18.96
2019-05-02T16:37:37.953Z,19.22
2019-05-02T16:40:12.043Z,19.33
2019-05-02T16:42:43.140Z,19.32
2019-05-02T16:45:15.208Z,19.46
2019-05-02T16:47:49.749Z,19.71
2019-05-02T16:50:19.937Z,19.39
2019-05-02T16:52:53.042Z,19.25
2019-05-02T16:55:26.704Z,19.08
2019-05-02T16:58:02.968Z,19.16
2019-05-02T17:00:32.023Z,18.90
2019-05-02T17:03:03.848Z,18.76
2019-05-02T17:05:39.492Z,18.60
2019-05-02T17:08:22.536Z,18.87
2019-05-02T17:11:01.859Z,18.89
2019-05-02T17:13:35.644Z,19.04
2019-05-02T17:16:13.178Z,18.81
2019-05-02T17:18:38.511Z,18.61
2019-05-02T17:21:09.500Z,18.64
2019-05-02T17:23:42.952Z,18.68
2019-05-02T17:26:13.222Z,18.68
2019-05-02T17:28:47.127Z,18.37
2019-05-02T17:31:20.556Z,18.50
2019-05-02T17:33:50.943Z,18.13
2019-05-02T17:36:28.708Z,17.92
2019-05-02T17:38:59.400Z,17.83
2019-05-02T17:41:28.178Z,17.79
2019-05-02T17:43:59.228Z,17.99
2019-05-02T17:46:30.166Z,17.68
2019-05-02T17:49:02.544Z,17.93
2019-05-02T17:52:05.309Z,17.70
2019-05-02T17:54:29.482Z,17.48
2019-05-02T17:57:02.159Z,17.48
2019-05-02T17:59:37.487Z,17.26
2019-05-02T18:02:11.531Z,17.06
2019-05-02T18:04:39.424Z,17.11
2019-05-02T18:07:11.681Z,17.16
2019-05-02T18:09:42.927Z,16.81
2019-05-02T18:12:16.237Z,16.44
2019-05-02T18:14:46.716Z,16.39
2019-05-02T18:17:17.826Z,16.49
2019-05-02T18:19:48.817Z,16.57
2019-05-02T18:22:24.155Z,16.11
2019-05-02T18:24:52.796Z,16.37
2019-05-02T18:27:24.087Z,16.20
2019-05-02T18:29:55.141Z,16.33
2019-05-02T18:32:26.318Z,16.32
2019-05-02T18:35:02.494Z,16.23
2019-05-02T18:37:32.486Z,16.21
2019-05-02T18:40:03.475Z,16.23
2019-05-02T18:42:34.532Z,16.02
2019-05-02T18:45:09.200Z,16.23
2019-05-02T18:47:41.795Z,16.20
2019-05-02T18:50:36.847Z,15.97
2019-05-02T18:53:08.296Z,16.01
2019-05-02T18:55:39.817Z,15.45
2019-05-02T18:58:12.858Z,15.45
2019-05-02T19:00:44.206Z,15.13
2019-05-02T19:03:17.230Z,15.21
2019-05-02T19:05:51.519Z,15.13
2019-05-02T19:08:30.535Z,15.21
2019-05-02T19:11:04.978Z,15.23
2019-05-02T19:13:29.992Z,15.31
2019-05-02T19:16:02.035Z,15.01
2019-05-02T19:18:33.220Z,15.01
2019-05-02T19:21:05.562Z,15.28
2019-05-02T19:23:37.444Z,15.21
2019-05-02T19:26:12.495Z,15.14
2019-05-02T19:28:56.535Z,14.98
2019-05-02T19:31:36.643Z,14.64
2019-05-02T19:34:05.416Z,14.59
2019-05-02T19:36:36.563Z,14.60
2019-05-02T19:39:09.890Z,14.79
2019-05-02T19:41:44.355Z,14.88
2019-05-02T19:44:15.367Z,14.68
2019-05-02T19:46:46.802Z,14.76
2019-05-02T19:49:17.997Z,14.52
2019-05-02T19:51:50.344Z,14.65
2019-05-02T19:54:22.037Z,14.66
2019-05-02T19:56:53.134Z,14.83
2019-05-02T19:59:26.395Z,14.74
2019-05-02T20:02:02.489Z,14.63
2019-05-02T20:04:32.605Z,14.50
2019-05-02T20:07:03.253Z,14.67
2019-05-02T20:09:38.090Z,14.76
2019-05-02T20:12:09.619Z,14.50
2019-05-02T20:14:45.773Z,14.87
2019-05-02T20:17:20.326Z,14.88
2019-05-02T20:19:52.878Z,15.11
2019-05-02T20:22:24.106Z,14.65
2019-05-02T20:25:01.146Z,14.86
2019-05-02T20:27:33.038Z,14.93
2019-05-02T20:30:04.963Z,14.97
2019-05-02T20:32:36.486Z,14.72
2019-05-02T20:35:08.505Z,15.03
2019-05-02T20:37:39.564Z,14.77
2019-05-02T20:40:26.759Z,14.78
2019-05-02T20:42:57.908Z,14.67
2019-05-02T20:45:29.254Z,13.78
2019-05-02T20:48:02.064Z,13.95
2019-05-02T20:50:33.096Z,13.81
2019-05-02T20:53:05.545Z,13.19
2019-05-02T20:55:37.908Z,13.48
2019-05-02T20:58:09.060Z,13.64
2019-05-02T21:00:42.582Z,13.68
2019-05-02T21:03:14.447Z,13.42
2019-05-02T21:06:02.219Z,13.05
2019-05-02T21:08:46.545Z,12.92
2019-05-02T21:11:17.614Z,13.00
2019-05-02T21:13:48.589Z,13.09
2019-05-02T21:16:21.710Z,12.67
2019-05-02T21:18:52.352Z,12.45
2019-05-02T21:21:24.783Z,12.53
2019-05-02T21:23:55.763Z,12.43
2019-05-02T21:26:27.745Z,12.13
2019-05-02T21:28:58.793Z,12.45
2019-05-02T21:31:31.794Z,12.40
2019-05-02T21:34:02.697Z,12.47
2019-05-02T21:36:33.671Z,12.31
2019-05-02T21:39:07.577Z,12.54
2019-05-02T21:41:38.705Z,12.28
2019-05-02T21:44:09.685Z,12.44
2019-05-02T21:46:42.331Z,12.25
2019-05-02T21:49:16.033Z,11.97
2019-05-02T21:52:05.986Z,12.12
2019-05-02T21:54:44.196Z,11.83
2019-05-02T21:57:17.688Z,11.78
2019-05-02T21:59:48.705Z,12.08
2019-05-02T22:02:22.585Z,12.16
2019-05-02T22:04:53.764Z,11.90
2019-05-02T22:07:24.855Z,11.76
2019-05-02T22:09:55.834Z,11.77
2019-05-02T22:12:27.066Z,11.91
2019-05-02T22:14:58.029Z,11.86
2019-05-02T22:17:29.078Z,11.55
2019-05-02T22:20:01.845Z,11.73
2019-05-02T22:22:34.405Z,11.63
2019-05-02T22:25:06.514Z,11.71
2019-05-02T22:27:37.538Z,11.61
2019-05-02T22:30:09.183Z,11.86
2019-05-02T22:32:40.212Z,11.97
2019-05-02T22:35:12.216Z,11.57
2019-05-02T22:37:46.150Z,11.61
2019-05-02T22:40:17.819Z,11.85
2019-05-02T22:42:48.829Z,11.91
2019-05-02T22:45:21.675Z,11.86
2019-05-02T22:47:52.757Z,11.59
2019-05-02T22:50:23.776Z,11.67
2019-05-02T22:52:54.776Z,11.44
2019-05-02T22:55:25.761Z,11.68
2019-05-02T22:57:56.762Z,11.64
2019-05-02T23:00:28.099Z,11.62
2019-05-02T23:02:59.105Z,11.78
2019-05-02T23:05:32.111Z,11.22
2019-05-02T23:08:02.913Z,11.31
2019-05-02T23:10:34.970Z,11.63
2019-05-02T23:13:06.303Z,11.33
2019-05-02T23:15:37.418Z,11.35
2019-05-02T23:18:08.413Z,11.14
2019-05-02T23:20:39.363Z,11.51
2019-05-02T23:23:12.405Z,11.30
2019-05-02T23:26:07.239Z,10.90
2019-05-02T23:28:40.088Z,11.16
2019-05-02T23:31:14.086Z,11.25
2019-05-02T23:33:59.291Z,11.35
2019-05-02T23:36:32.555Z,11.06
2019-05-02T23:39:05.271Z,10.98
2019-05-02T23:41:36.406Z,10.67
2019-05-02T23:44:07.547Z,10.93
2019-05-02T23:46:38.592Z,11.08
2019-05-02T23:49:09.653Z,10.97
2019-05-02T23:51:42.510Z,10.93
2019-05-02T23:54:13.417Z,11.14
2019-05-02T23:56:44.549Z,11.14
2019-05-02T23:59:15.583Z,11.22
